createdAt,value
2022-09-01T00:00:02.740Z,22.35
2022-09-01T00:02:30.412Z,22.90
2022-09-01T00:04:59.015Z,23.60
2022-09-01T00:07:30.510Z,22.65
2022-09-01T00:09:59.008Z,22.33
2022-09-01T00:12:26.843Z,24.48
2022-09-01T00:14:53.702Z,24.10
2022-09-01T00:17:20.685Z,22.58
2022-09-01T00:19:47.516Z,21.45
2022-09-01T00:22:14.281Z,22.42
2022-09-01T00:24:41.543Z,22.45
2022-09-01T00:27:08.511Z,20.75
2022-09-01T00:29:36.180Z,22.05
2022-09-01T00:32:03.286Z,20.77
2022-09-01T00:34:30.127Z,22.02
2022-09-01T00:36:56.859Z,18.83
2022-09-01T00:39:23.799Z,22.95
2022-09-01T00:41:51.333Z,19.10
2022-09-01T00:44:26.946Z,19.98
2022-09-01T00:46:57.150Z,19.77
2022-09-01T00:49:39.515Z,23.27
2022-09-01T00:52:45.691Z,19.35
2022-09-01T00:55:17.605Z,21.90
2022-09-01T00:57:45.405Z,20.10
2022-09-01T01:00:21.615Z,20.40
2022-09-01T01:02:55.856Z,21.42
2022-09-01T01:05:27.826Z,19.77
2022-09-01T01:07:55.778Z,22.33
2022-09-01T01:10:26.696Z,20.13
2022-09-01T01:12:54.005Z,21.45
2022-09-01T01:15:21.183Z,21.50
2022-09-01T01:17:47.929Z,22.15
2022-09-01T01:20:35.402Z,21.65
2022-09-01T01:23:15.952Z,22.08
2022-09-01T01:25:52.199Z,23.40
2022-09-01T01:28:22.617Z,20.52
2022-09-01T01:30:55.849Z,20.25
2022-09-01T01:33:27.057Z,21.73
2022-09-01T01:35:57.722Z,24.27
2022-09-01T01:38:25.615Z,22.92
2022-09-01T01:40:53.755Z,25.48
2022-09-01T01:43:21.942Z,21.58
2022-09-01T01:45:52.220Z,24.60
2022-09-01T01:48:24.094Z,25.63
2022-09-01T01:50:53.692Z,23.05
2022-09-01T01:53:21.213Z,24.42
2022-09-01T01:55:49.636Z,23.88
2022-09-01T01:58:22.174Z,34.15
2022-09-01T02:00:51.732Z,22.63
2022-09-01T02:03:22.040Z,26.92
2022-09-01T02:05:51.788Z,24.45
2022-09-01T02:08:21.964Z,26.23
2022-09-01T02:10:51.452Z,26.02
2022-09-01T02:13:20.923Z,26.85
2022-09-01T02:15:53.700Z,29.63
2022-09-01T02:18:28.537Z,28.60
2022-09-01T02:20:58.947Z,31.98
2022-09-01T02:23:25.929Z,26.85
2022-09-01T02:26:17.977Z,29.00
2022-09-01T02:28:44.287Z,29.77
2022-09-01T02:31:11.815Z,31.02
2022-09-01T02:33:40.142Z,29.48
2022-09-01T02:36:14.316Z,27.30
2022-09-01T02:41:23.079Z,27.58
2022-09-01T02:43:50.906Z,28.38
2022-09-01T02:46:18.865Z,27.30
2022-09-01T02:48:46.176Z,24.20
2022-09-01T02:51:17.714Z,25.05
2022-09-01T02:53:49.815Z,25.33
2022-09-01T02:56:18.160Z,23.88
2022-09-01T02:58:46.415Z,26.73
2022-09-01T03:01:22.144Z,26.40
2022-09-01T03:03:51.124Z,25.85
2022-09-01T03:06:23.991Z,25.98
2022-09-01T03:08:53.177Z,27.75
2022-09-01T03:11:20.174Z,27.30
2022-09-01T03:13:47.410Z,25.15
2022-09-01T03:16:14.341Z,27.45
2022-09-01T03:18:42.806Z,23.88
2022-09-01T03:21:13.717Z,24.30
2022-09-01T03:23:40.465Z,26.25
2022-09-01T03:26:07.187Z,26.25
2022-09-01T03:28:34.117Z,25.70
2022-09-01T03:31:00.921Z,28.92
2022-09-01T03:33:28.408Z,29.10
2022-09-01T03:35:55.941Z,27.27
2022-09-01T03:38:24.557Z,29.55
2022-09-01T03:40:54.979Z,24.70
2022-09-01T03:43:25.037Z,27.70
2022-09-01T03:45:51.934Z,29.55
2022-09-01T03:48:19.465Z,25.80
2022-09-01T03:50:47.369Z,25.20
2022-09-01T03:53:20.049Z,28.92
2022-09-01T03:55:48.397Z,31.67
2022-09-01T03:58:19.069Z,31.30
2022-09-01T04:00:55.464Z,29.17
2022-09-01T04:03:28.828Z,31.10
2022-09-01T04:05:56.613Z,31.65
2022-09-01T04:08:32.592Z,30.05
2022-09-01T04:11:10.192Z,32.70
2022-09-01T04:13:39.223Z,30.25
2022-09-01T04:16:29.822Z,32.95
2022-09-01T04:18:56.620Z,29.52
2022-09-01T04:21:23.332Z,28.90
2022-09-01T04:23:50.053Z,30.35
2022-09-01T04:26:20.463Z,31.85
2022-09-01T04:28:50.862Z,31.67
2022-09-01T04:31:21.107Z,32.30
2022-09-01T04:33:52.740Z,26.40
2022-09-01T04:36:27.441Z,31.15
2022-09-01T04:39:00.631Z,31.88
2022-09-01T04:41:32.119Z,28.90
2022-09-01T04:44:04.834Z,31.27
2022-09-01T04:46:35.812Z,31.48
2022-09-01T04:49:13.120Z,28.45
2022-09-01T04:51:42.746Z,26.98
2022-09-01T04:54:14.733Z,27.17
2022-09-01T04:56:45.074Z,28.52
2022-09-01T04:59:13.106Z,28.08
2022-09-01T05:01:45.359Z,27.27
2022-09-01T05:04:22.728Z,29.83
2022-09-01T05:06:57.879Z,27.30
2022-09-01T05:09:25.202Z,31.13
2022-09-01T05:11:53.047Z,31.17
2022-09-01T05:14:21.433Z,31.00
2022-09-01T05:16:50.037Z,30.20
2022-09-01T05:19:21.554Z,29.25
2022-09-01T05:21:49.782Z,31.85
2022-09-01T05:24:21.812Z,28.95
2022-09-01T05:26:50.914Z,28.95
2022-09-01T05:29:18.034Z,28.05
2022-09-01T05:31:50.399Z,27.50
2022-09-01T05:34:26.441Z,29.73
2022-09-01T05:36:57.485Z,31.35
2022-09-01T05:39:26.093Z,28.88
2022-09-01T05:41:54.058Z,27.65
2022-09-01T05:44:23.629Z,30.77
2022-09-01T05:46:50.861Z,27.25
2022-09-01T05:49:18.539Z,28.38
2022-09-01T05:51:52.191Z,26.30
2022-09-01T05:54:23.241Z,25.13
2022-09-01T05:56:50.341Z,26.77
2022-09-01T05:59:25.531Z,28.23
2022-09-01T06:01:53.715Z,28.27
2022-09-01T06:04:20.745Z,28.58
2022-09-01T06:07:07.170Z,27.42
2022-09-01T06:09:41.728Z,27.75
2022-09-01T06:12:17.524Z,23.95
2022-09-01T06:14:49.657Z,27.27
2022-09-01T06:17:22.164Z,27.70
2022-09-01T06:19:49.068Z,23.92
2022-09-01T06:22:17.126Z,22.10
2022-09-01T06:24:45.584Z,24.70
2022-09-01T06:27:18.146Z,23.17
2022-09-01T06:29:45.466Z,21.90
2022-09-01T06:32:12.591Z,19.48
2022-09-01T06:34:44.792Z,20.63
2022-09-01T06:37:13.366Z,21.02
2022-09-01T06:39:40.197Z,20.02
2022-09-01T06:42:09.457Z,19.05
2022-09-01T06:44:40.883Z,17.02
2022-09-01T06:47:09.165Z,16.95
2022-09-01T06:49:36.855Z,16.33
2022-09-01T06:52:04.762Z,16.17
2022-09-01T06:54:35.683Z,15.50
2022-09-01T06:59:52.505Z,13.23
2022-09-01T07:02:24.498Z,14.50
2022-09-01T07:04:54.217Z,15.55
2022-09-01T07:10:24.884Z,15.93
2022-09-01T07:13:08.621Z,12.32
2022-09-01T07:18:31.374Z,9.90
2022-09-01T07:21:36.538Z,11.02
2022-09-01T07:24:07.667Z,10.63
2022-09-01T07:26:35.345Z,11.10
2022-09-01T07:29:04.184Z,10.25
2022-09-01T07:32:43.767Z,9.90
2022-09-01T07:45:30.743Z,9.27
2022-09-01T07:48:06.507Z,9.02
2022-09-01T07:51:07.576Z,10.27
2022-09-01T07:53:29.856Z,10.27
2022-09-01T07:55:57.193Z,9.98
2022-09-01T07:58:26.580Z,11.32
2022-09-01T08:00:55.188Z,9.15
2022-09-01T08:03:25.266Z,10.50
2022-09-01T08:05:57.744Z,10.82
2022-09-01T08:08:29.036Z,10.30
2022-09-01T08:11:04.285Z,10.02
2022-09-01T08:13:34.648Z,8.80
2022-09-01T08:16:08.429Z,8.75
2022-09-01T08:18:51.336Z,9.35
2022-09-01T08:21:21.982Z,8.20
2022-09-01T08:23:50.256Z,10.20
2022-09-01T08:26:20.045Z,7.88
2022-09-01T08:28:54.967Z,7.97
2022-09-01T08:31:23.633Z,8.52
2022-09-01T08:33:50.705Z,8.70
2022-09-01T08:36:23.060Z,7.35
2022-09-01T08:38:52.056Z,8.27
2022-09-01T08:41:55.575Z,7.82
2022-09-01T08:44:48.640Z,7.75
2022-09-01T08:47:28.116Z,8.50
2022-09-01T08:49:59.085Z,7.90
2022-09-01T08:52:34.211Z,7.63
2022-09-01T08:55:25.897Z,7.60
2022-09-01T08:57:59.149Z,7.43
2022-09-01T09:00:30.180Z,9.02
2022-09-01T09:03:22.134Z,7.30
2022-09-01T09:06:12.760Z,8.02
2022-09-01T09:09:01.513Z,8.30
2022-09-01T09:11:58.975Z,6.90
2022-09-01T09:14:53.707Z,7.85
2022-09-01T09:17:25.487Z,6.18
2022-09-01T09:19:52.323Z,6.57
2022-09-01T09:22:21.219Z,7.85
2022-09-01T09:25:09.117Z,6.43
2022-09-01T09:27:42.248Z,6.28
2022-09-01T09:30:26.479Z,7.35
2022-09-01T09:35:50.798Z,8.13
2022-09-01T09:38:28.508Z,5.38
2022-09-01T09:41:17.860Z,6.25
2022-09-01T09:43:58.755Z,5.60
2022-09-01T09:46:31.971Z,5.25
2022-09-01T09:49:34.561Z,6.43
2022-09-01T09:52:10.153Z,5.88
2022-09-01T09:54:39.595Z,6.20
2022-09-01T09:57:09.107Z,6.07
2022-09-01T10:00:03.797Z,5.20
2022-09-01T10:02:40.344Z,6.03
2022-09-01T10:05:27.865Z,5.50
2022-09-01T10:07:56.209Z,6.10
2022-09-01T10:10:25.903Z,6.45
2022-09-01T10:12:57.391Z,5.13
2022-09-01T10:15:30.099Z,5.72
2022-09-01T10:21:08.342Z,5.43
2022-09-01T10:23:38.651Z,5.95
2022-09-01T10:26:24.016Z,5.13
2022-09-01T10:29:07.273Z,6.28
2022-09-01T10:31:40.874Z,7.30
2022-09-01T10:34:11.802Z,4.95
2022-09-01T10:36:41.981Z,5.05
2022-09-01T10:39:21.915Z,5.93
2022-09-01T10:42:00.487Z,8.98
2022-09-01T10:44:33.767Z,6.65
2022-09-01T10:47:13.594Z,8.23
2022-09-01T10:49:47.399Z,5.32
2022-09-01T10:52:43.118Z,5.57
2022-09-01T10:55:24.495Z,6.18
2022-09-01T10:59:31.098Z,7.50
2022-09-01T11:01:40.523Z,5.97
2022-09-01T11:03:56.418Z,6.18
2022-09-01T11:07:13.912Z,6.78
2022-09-01T11:09:43.688Z,5.10
2022-09-01T11:12:29.817Z,5.25
2022-09-01T11:15:01.211Z,5.47
2022-09-01T11:17:36.424Z,4.95
2022-09-01T11:20:09.989Z,6.13
2022-09-01T11:23:24.227Z,5.45
2022-09-01T11:26:23.561Z,4.68
2022-09-01T11:28:50.733Z,4.70
2022-09-01T11:31:29.480Z,6.43
2022-09-01T11:34:03.907Z,5.63
2022-09-01T11:36:47.225Z,6.05
2022-09-01T11:39:17.994Z,6.53
2022-09-01T11:42:08.143Z,5.85
2022-09-01T11:44:43.854Z,5.82
2022-09-01T11:47:21.015Z,5.57
2022-09-01T11:49:51.876Z,6.35
2022-09-01T11:52:20.589Z,7.50
2022-09-01T11:54:48.150Z,4.30
2022-09-01T11:57:26.919Z,4.95
2022-09-01T11:59:54.738Z,5.13
2022-09-01T12:02:29.635Z,7.05
2022-09-01T12:04:57.392Z,4.95
2022-09-01T12:07:29.483Z,4.68
2022-09-01T12:09:56.306Z,5.30
2022-09-01T12:12:39.271Z,4.88
2022-09-01T12:15:18.842Z,4.50
2022-09-01T12:17:46.566Z,5.80
2022-09-01T12:20:33.003Z,6.15
2022-09-01T12:23:02.302Z,5.47
2022-09-01T12:25:33.117Z,4.85
2022-09-01T12:28:03.738Z,5.32
2022-09-01T12:30:35.247Z,5.75
2022-09-01T12:35:57.406Z,5.03
2022-09-01T12:38:30.214Z,5.40
2022-09-01T12:40:58.996Z,5.03
2022-09-01T12:43:32.491Z,3.63
2022-09-01T12:46:02.905Z,5.07
2022-09-01T12:48:39.554Z,4.05
2022-09-01T12:51:15.236Z,5.63
2022-09-01T12:53:58.277Z,4.20
2022-09-01T12:56:34.720Z,5.85
2022-09-01T12:59:14.230Z,5.30
2022-09-01T13:01:43.046Z,3.72
2022-09-01T13:04:26.409Z,5.15
2022-09-01T13:06:55.772Z,5.38
2022-09-01T13:09:23.088Z,4.43
2022-09-01T13:12:06.521Z,3.92
2022-09-01T13:14:33.847Z,4.03
2022-09-01T13:17:01.287Z,5.93
2022-09-01T13:19:30.545Z,6.18
2022-09-01T13:21:57.755Z,3.80
2022-09-01T13:24:28.091Z,4.00
2022-09-01T13:29:45.044Z,5.03
2022-09-01T13:32:20.840Z,4.68
2022-09-01T13:34:50.771Z,4.53
2022-09-01T13:37:21.917Z,4.88
2022-09-01T13:39:48.832Z,4.03
2022-09-01T13:42:16.420Z,3.53
2022-09-01T13:44:44.258Z,4.40
2022-09-01T13:50:09.869Z,5.13
2022-09-01T13:52:40.527Z,3.97
2022-09-01T13:55:10.994Z,3.72
2022-09-01T13:57:38.468Z,3.00
2022-09-01T14:00:11.078Z,3.70
2022-09-01T14:02:49.013Z,3.67
2022-09-01T14:05:18.828Z,3.28
2022-09-01T14:07:45.637Z,4.15
2022-09-01T14:10:14.550Z,3.42
2022-09-01T14:12:42.293Z,5.35
2022-09-01T14:15:13.738Z,3.70
2022-09-01T14:17:43.412Z,3.13
2022-09-01T14:20:18.600Z,2.92
2022-09-01T14:22:46.372Z,5.82
2022-09-01T14:25:14.356Z,3.03
2022-09-01T14:27:43.914Z,3.22
2022-09-01T14:30:18.563Z,2.75
2022-09-01T14:32:45.891Z,2.97
2022-09-01T14:35:13.037Z,3.13
2022-09-01T14:37:40.236Z,3.50
2022-09-01T14:40:08.911Z,2.85
2022-09-01T14:42:37.195Z,2.60
2022-09-01T14:45:05.412Z,3.70
2022-09-01T14:47:32.285Z,5.13
2022-09-01T14:50:01.412Z,2.60
2022-09-01T14:52:28.200Z,3.00
2022-09-01T14:54:54.878Z,3.80
2022-09-01T14:57:30.758Z,3.03
2022-09-01T15:00:10.110Z,4.28
2022-09-01T15:02:38.345Z,3.17
2022-09-01T15:05:06.014Z,3.22
2022-09-01T15:07:32.773Z,2.70
2022-09-01T15:09:59.677Z,3.97
2022-09-01T15:12:30.912Z,3.35
2022-09-01T15:14:59.689Z,2.38
2022-09-01T15:17:29.666Z,3.13
2022-09-01T15:20:16.411Z,4.30
2022-09-01T15:22:43.131Z,6.82
2022-09-01T15:25:09.876Z,3.67
2022-09-01T15:27:41.309Z,3.53
2022-09-01T15:30:14.531Z,3.65
2022-09-01T15:32:46.464Z,3.15
2022-09-01T15:35:14.133Z,3.60
2022-09-01T15:37:41.213Z,4.32
2022-09-01T15:40:08.960Z,4.55
2022-09-01T15:42:37.407Z,3.97
2022-09-01T15:45:07.610Z,3.03
2022-09-01T15:47:34.838Z,2.83
2022-09-01T15:50:03.794Z,4.05
2022-09-01T15:52:33.041Z,3.55
2022-09-01T15:55:00.593Z,3.60
2022-09-01T15:57:27.483Z,5.47
2022-09-01T15:59:54.612Z,3.10
2022-09-01T16:02:23.983Z,4.00
2022-09-01T16:04:50.689Z,3.10
2022-09-01T16:07:17.408Z,3.70
2022-09-01T16:09:44.079Z,4.55
2022-09-01T16:12:10.809Z,3.70
2022-09-01T16:14:37.508Z,3.15
2022-09-01T16:17:13.542Z,3.63
2022-09-01T16:19:51.672Z,3.15
2022-09-01T16:22:18.518Z,3.17
2022-09-01T16:24:48.567Z,3.50
2022-09-01T16:27:18.436Z,3.05
2022-09-01T16:29:54.017Z,4.57
2022-09-01T16:32:23.254Z,5.82
2022-09-01T16:34:51.849Z,3.50
2022-09-01T16:37:38.934Z,3.47
2022-09-01T16:40:17.985Z,3.97
2022-09-01T16:42:57.818Z,8.63
2022-09-01T16:45:43.771Z,4.20
2022-09-01T16:48:21.751Z,3.75
2022-09-01T16:51:02.577Z,5.63
2022-09-01T16:53:32.276Z,5.72
2022-09-01T16:56:09.489Z,3.65
2022-09-01T16:58:53.612Z,7.03
2022-09-01T17:01:56.552Z,3.00
2022-09-01T17:04:40.332Z,5.93
2022-09-01T17:07:30.008Z,2.80
2022-09-01T17:10:06.739Z,5.40
2022-09-01T17:12:48.947Z,4.22
2022-09-01T17:15:19.938Z,4.82
2022-09-01T17:17:54.804Z,7.13
2022-09-01T17:20:30.998Z,5.43
2022-09-01T17:23:00.585Z,4.47
2022-09-01T17:25:33.721Z,5.88
2022-09-01T17:28:02.826Z,4.57
2022-09-01T17:30:31.925Z,6.45
2022-09-01T17:33:17.455Z,3.92
2022-09-01T17:36:04.416Z,3.70
2022-09-01T17:38:54.508Z,7.18
2022-09-01T17:41:52.727Z,7.30
2022-09-01T17:44:35.642Z,3.90
2022-09-01T17:47:12.751Z,4.13
2022-09-01T17:50:01.080Z,6.47
2022-09-01T17:52:52.370Z,6.50
2022-09-01T17:55:51.933Z,4.07
2022-09-01T17:58:56.128Z,7.93
2022-09-01T18:01:42.856Z,7.95
2022-09-01T18:04:18.897Z,5.28
2022-09-01T18:06:52.640Z,4.03
2022-09-01T18:09:24.364Z,4.03
2022-09-01T18:11:58.349Z,7.47
2022-09-01T18:14:33.444Z,5.18
2022-09-01T18:17:18.859Z,3.50
2022-09-01T18:19:52.683Z,4.05
2022-09-01T18:22:22.500Z,5.10
2022-09-01T18:24:57.183Z,5.65
2022-09-01T18:27:27.699Z,5.07
2022-09-01T18:29:56.867Z,5.93
2022-09-01T18:32:44.610Z,4.00
2022-09-01T18:35:34.102Z,3.95
2022-09-01T18:38:28.247Z,4.53
2022-09-01T18:41:30.549Z,5.22
2022-09-01T18:43:57.450Z,4.63
2022-09-01T18:46:33.312Z,4.15
2022-09-01T18:49:30.337Z,3.83
2022-09-01T18:52:18.086Z,4.47
2022-09-01T18:55:16.067Z,5.07
2022-09-01T18:57:47.169Z,4.05
2022-09-01T19:00:19.333Z,4.38
2022-09-01T19:02:52.254Z,4.03
2022-09-01T19:05:56.622Z,4.13
2022-09-01T19:08:47.836Z,3.88
2022-09-01T19:11:58.467Z,4.32
2022-09-01T19:14:45.307Z,5.75
2022-09-01T19:17:16.339Z,3.80
2022-09-01T19:19:51.397Z,4.00
2022-09-01T19:22:37.281Z,3.90
2022-09-01T19:25:27.693Z,5.35
2022-09-01T19:28:13.828Z,5.47
2022-09-01T19:30:47.947Z,5.13
2022-09-01T19:33:19.919Z,3.97
2022-09-01T19:35:49.283Z,3.65
2022-09-01T19:38:23.776Z,5.43
2022-09-01T19:43:21.010Z,5.30
2022-09-01T19:46:22.377Z,4.93
2022-09-01T19:49:02.499Z,4.18
2022-09-01T19:51:38.145Z,3.92
2022-09-01T19:54:21.062Z,7.65
2022-09-01T19:56:52.750Z,4.20
2022-09-01T19:59:36.504Z,4.53
2022-09-01T20:02:12.944Z,7.35
2022-09-01T20:04:46.850Z,4.30
2022-09-01T20:07:28.938Z,3.70
2022-09-01T20:10:01.542Z,4.05
2022-09-01T20:12:40.088Z,5.55
2022-09-01T20:15:20.810Z,6.35
2022-09-01T20:17:57.613Z,5.20
2022-09-01T20:20:43.367Z,8.20
2022-09-01T20:23:27.131Z,4.45
2022-09-01T20:26:04.113Z,4.68
2022-09-01T20:29:12.844Z,3.95
2022-09-01T20:31:45.521Z,3.08
2022-09-01T20:34:29.189Z,3.85
2022-09-01T20:37:05.173Z,4.80
2022-09-01T20:40:04.389Z,4.88
2022-09-01T20:42:43.639Z,4.93
2022-09-01T20:45:10.319Z,4.05
2022-09-01T20:47:37.101Z,4.65
2022-09-01T20:50:11.839Z,5.93
2022-09-01T20:53:22.341Z,5.95
2022-09-01T20:56:16.965Z,7.47
2022-09-01T20:58:53.755Z,5.15
2022-09-01T21:01:43.519Z,4.18
2022-09-01T21:04:22.217Z,5.10
2022-09-01T21:06:59.973Z,3.53
2022-09-01T21:09:59.734Z,5.80
2022-09-01T21:12:37.446Z,3.38
2022-09-01T21:15:41.684Z,4.65
2022-09-01T21:18:36.837Z,3.45
2022-09-01T21:21:07.032Z,4.45
2022-09-01T21:23:33.958Z,3.60
2022-09-01T21:26:01.580Z,3.95
2022-09-01T21:28:29.450Z,4.18
2022-09-01T21:30:57.866Z,3.05
2022-09-01T21:33:26.708Z,3.38
2022-09-01T21:35:53.915Z,4.85
2022-09-01T21:38:20.689Z,5.05
2022-09-01T21:40:49.160Z,4.18
2022-09-01T21:43:21.190Z,4.40
2022-09-01T21:45:48.299Z,3.40
2022-09-01T21:48:15.209Z,4.75
2022-09-01T21:50:42.078Z,4.75
2022-09-01T21:53:10.285Z,4.30
2022-09-01T21:55:37.638Z,3.67
2022-09-01T21:58:04.354Z,5.03
2022-09-01T22:00:33.627Z,5.70
2022-09-01T22:03:01.949Z,5.43
2022-09-01T22:05:29.987Z,3.53
2022-09-01T22:07:58.933Z,5.07
2022-09-01T22:10:28.291Z,3.50
2022-09-01T22:12:56.184Z,3.00
2022-09-01T22:15:24.736Z,3.63
2022-09-01T22:17:55.599Z,5.57
2022-09-01T22:20:24.870Z,3.78
2022-09-01T22:22:52.074Z,5.70
2022-09-01T22:25:23.815Z,4.32
2022-09-01T22:27:50.843Z,3.42
2022-09-01T22:30:19.199Z,3.95
2022-09-01T22:32:47.568Z,5.25
2022-09-01T22:35:16.070Z,3.60
2022-09-01T22:37:43.355Z,4.25
2022-09-01T22:40:11.459Z,3.53
2022-09-01T22:42:38.797Z,3.45
2022-09-01T22:45:07.648Z,3.63
2022-09-01T22:47:37.353Z,3.35
2022-09-01T22:50:06.356Z,6.40
2022-09-01T22:52:34.043Z,3.88
2022-09-01T22:55:00.745Z,3.97
2022-09-01T22:57:28.604Z,4.32
2022-09-01T22:59:55.684Z,3.92
2022-09-01T23:02:23.450Z,4.28
2022-09-01T23:04:50.536Z,6.82
2022-09-01T23:07:17.271Z,4.03
2022-09-01T23:09:44.038Z,5.10
2022-09-01T23:12:10.736Z,3.97
2022-09-01T23:14:40.337Z,6.38
2022-09-01T23:17:07.085Z,5.63
2022-09-01T23:19:33.814Z,3.83
2022-09-01T23:22:00.867Z,5.97
2022-09-01T23:24:27.642Z,3.47
2022-09-01T23:26:54.335Z,5.68
2022-09-01T23:29:21.330Z,4.00
2022-09-01T23:31:48.523Z,4.38
2022-09-01T23:34:15.368Z,3.88
2022-09-01T23:36:42.488Z,3.85
2022-09-01T23:39:09.191Z,3.70
2022-09-01T23:41:38.622Z,4.22
2022-09-01T23:44:09.443Z,3.78
2022-09-01T23:46:42.861Z,3.45
2022-09-01T23:49:11.175Z,4.82
2022-09-01T23:51:39.224Z,7.07
2022-09-01T23:54:06.542Z,4.80
2022-09-01T23:56:33.702Z,4.57
2022-09-01T23:59:00.909Z,4.85
